sensor_id;sensor_type;location;lat;lon;timestamp;P1;durP1;ratioP1;P2;durP2;ratioP2
51495;SDS011;37572;52.094;4.870;2022-07-01T00:01:16;22.70;;;16.10;;
51495;SDS011;37572;52.094;4.870;2022-07-01T00:03:41;21.98;;;16.42;;
51495;SDS011;37572;52.094;4.870;2022-07-01T00:06:13;20.67;;;17.02;;
51495;SDS011;37572;52.094;4.870;2022-07-01T00:08:39;24.08;;;18.08;;
51495;SDS011;37572;52.094;4.870;2022-07-01T00:11:04;22.23;;;18.67;;
51495;SDS011;37572;52.094;4.870;2022-07-01T00:13:29;27.77;;;20.02;;
51495;SDS011;37572;52.094;4.870;2022-07-01T00:15:54;29.33;;;21.05;;
51495;SDS011;37572;52.094;4.870;2022-07-01T00:18:20;24.77;;;19.45;;
51495;SDS011;37572;52.094;4.870;2022-07-01T00:20:46;31.27;;;22.33;;
51495;SDS011;37572;52.094;4.870;2022-07-01T00:23:11;31.38;;;22.55;;
51495;SDS011;37572;52.094;4.870;2022-07-01T00:25:38;30.13;;;23.33;;
51495;SDS011;37572;52.094;4.870;2022-07-01T00:28:04;35.58;;;24.13;;
51495;SDS011;37572;52.094;4.870;2022-07-01T00:30:29;34.45;;;25.10;;
51495;SDS011;37572;52.094;4.870;2022-07-01T00:32:55;32.42;;;25.83;;
51495;SDS011;37572;52.094;4.870;2022-07-01T00:35:20;33.78;;;27.63;;
51495;SDS011;37572;52.094;4.870;2022-07-01T00:37:46;39.22;;;28.65;;
51495;SDS011;37572;52.094;4.870;2022-07-01T00:40:11;41.47;;;28.70;;
51495;SDS011;37572;52.094;4.870;2022-07-01T00:42:40;40.30;;;31.17;;
51495;SDS011;37572;52.094;4.870;2022-07-01T00:45:07;41.70;;;31.63;;
51495;SDS011;37572;52.094;4.870;2022-07-01T00:47:34;45.00;;;31.50;;
51495;SDS011;37572;52.094;4.870;2022-07-01T00:50:07;41.50;;;33.95;;
51495;SDS011;37572;52.094;4.870;2022-07-01T00:52:34;47.22;;;34.00;;
51495;SDS011;37572;52.094;4.870;2022-07-01T00:55:03;46.67;;;34.10;;
51495;SDS011;37572;52.094;4.870;2022-07-01T00:57:30;47.42;;;35.70;;
51495;SDS011;37572;52.094;4.870;2022-07-01T00:59:57;43.78;;;34.95;;
51495;SDS011;37572;52.094;4.870;2022-07-01T01:02:22;41.47;;;32.42;;
51495;SDS011;37572;52.094;4.870;2022-07-01T01:04:47;50.58;;;36.75;;
51495;SDS011;37572;52.094;4.870;2022-07-01T01:07:13;48.92;;;36.67;;
51495;SDS011;37572;52.094;4.870;2022-07-01T01:09:39;45.65;;;34.72;;
51495;SDS011;37572;52.094;4.870;2022-07-01T01:12:05;46.72;;;35.40;;
51495;SDS011;37572;52.094;4.870;2022-07-01T01:14:42;49.30;;;35.80;;
51495;SDS011;37572;52.094;4.870;2022-07-01T01:17:08;49.47;;;35.13;;
51495;SDS011;37572;52.094;4.870;2022-07-01T01:19:33;52.95;;;35.97;;
51495;SDS011;37572;52.094;4.870;2022-07-01T01:21:59;45.35;;;33.92;;
51495;SDS011;37572;52.094;4.870;2022-07-01T01:24:24;50.22;;;35.63;;
51495;SDS011;37572;52.094;4.870;2022-07-01T01:26:50;44.75;;;33.30;;
51495;SDS011;37572;52.094;4.870;2022-07-01T01:29:15;49.97;;;34.38;;
51495;SDS011;37572;52.094;4.870;2022-07-01T01:31:41;53.08;;;36.40;;
51495;SDS011;37572;52.094;4.870;2022-07-01T01:34:06;47.25;;;35.13;;
51495;SDS011;37572;52.094;4.870;2022-07-01T01:36:32;49.13;;;34.55;;
51495;SDS011;37572;52.094;4.870;2022-07-01T01:38:57;51.92;;;35.70;;
51495;SDS011;37572;52.094;4.870;2022-07-01T01:41:32;47.00;;;34.85;;
51495;SDS011;37572;52.094;4.870;2022-07-01T01:43:57;45.47;;;35.28;;
51495;SDS011;37572;52.094;4.870;2022-07-01T01:46:23;47.47;;;35.38;;
51495;SDS011;37572;52.094;4.870;2022-07-01T01:48:48;49.45;;;35.03;;
51495;SDS011;37572;52.094;4.870;2022-07-01T01:51:13;47.22;;;35.58;;
51495;SDS011;37572;52.094;4.870;2022-07-01T01:53:39;48.33;;;36.38;;
51495;SDS011;37572;52.094;4.870;2022-07-01T01:56:04;51.15;;;35.78;;
51495;SDS011;37572;52.094;4.870;2022-07-01T01:58:29;52.53;;;37.33;;
51495;SDS011;37572;52.094;4.870;2022-07-01T02:00:55;49.50;;;35.65;;
51495;SDS011;37572;52.094;4.870;2022-07-01T02:03:20;55.03;;;37.17;;
51495;SDS011;37572;52.094;4.870;2022-07-01T02:05:46;50.40;;;35.72;;
51495;SDS011;37572;52.094;4.870;2022-07-01T02:08:11;48.03;;;35.08;;
51495;SDS011;37572;52.094;4.870;2022-07-01T02:10:36;47.28;;;34.83;;
51495;SDS011;37572;52.094;4.870;2022-07-01T02:13:02;48.85;;;34.60;;
51495;SDS011;37572;52.094;4.870;2022-07-01T02:15:27;47.88;;;35.38;;
51495;SDS011;37572;52.094;4.870;2022-07-01T02:17:52;49.13;;;35.35;;
51495;SDS011;37572;52.094;4.870;2022-07-01T02:20:21;52.17;;;37.47;;
51495;SDS011;37572;52.094;4.870;2022-07-01T02:22:46;47.70;;;36.22;;
51495;SDS011;37572;52.094;4.870;2022-07-01T02:25:12;48.08;;;35.47;;
51495;SDS011;37572;52.094;4.870;2022-07-01T02:27:37;53.10;;;35.38;;
51495;SDS011;37572;52.094;4.870;2022-07-01T02:30:03;49.03;;;35.67;;
51495;SDS011;37572;52.094;4.870;2022-07-01T02:32:30;52.28;;;35.38;;
51495;SDS011;37572;52.094;4.870;2022-07-01T02:34:56;46.22;;;33.35;;
51495;SDS011;37572;52.094;4.870;2022-07-01T02:37:21;49.00;;;36.00;;
51495;SDS011;37572;52.094;4.870;2022-07-01T02:39:46;50.03;;;34.08;;
51495;SDS011;37572;52.094;4.870;2022-07-01T02:42:12;47.58;;;33.67;;
51495;SDS011;37572;52.094;4.870;2022-07-01T02:44:53;45.63;;;33.30;;
51495;SDS011;37572;52.094;4.870;2022-07-01T02:47:20;44.85;;;32.80;;
51495;SDS011;37572;52.094;4.870;2022-07-01T02:49:46;56.45;;;34.60;;
51495;SDS011;37572;52.094;4.870;2022-07-01T02:52:11;53.55;;;33.97;;
51495;SDS011;37572;52.094;4.870;2022-07-01T02:54:37;50.80;;;34.65;;
51495;SDS011;37572;52.094;4.870;2022-07-01T02:57:02;52.22;;;33.05;;
51495;SDS011;37572;52.094;4.870;2022-07-01T02:59:28;51.03;;;33.85;;
51495;SDS011;37572;52.094;4.870;2022-07-01T03:01:54;51.47;;;33.88;;
51495;SDS011;37572;52.094;4.870;2022-07-01T03:04:19;56.83;;;35.28;;
51495;SDS011;37572;52.094;4.870;2022-07-01T03:06:44;48.35;;;34.25;;
51495;SDS011;37572;52.094;4.870;2022-07-01T03:09:10;47.30;;;32.13;;
51495;SDS011;37572;52.094;4.870;2022-07-01T03:11:35;48.85;;;32.28;;
51495;SDS011;37572;52.094;4.870;2022-07-01T03:14:00;50.45;;;33.50;;
51495;SDS011;37572;52.094;4.870;2022-07-01T03:16:26;47.35;;;32.08;;
51495;SDS011;37572;52.094;4.870;2022-07-01T03:18:51;42.83;;;31.60;;
51495;SDS011;37572;52.094;4.870;2022-07-01T03:21:16;51.08;;;32.92;;
51495;SDS011;37572;52.094;4.870;2022-07-01T03:23:42;49.17;;;33.63;;
51495;SDS011;37572;52.094;4.870;2022-07-01T03:26:07;51.58;;;31.90;;
51495;SDS011;37572;52.094;4.870;2022-07-01T03:28:32;54.63;;;33.38;;
51495;SDS011;37572;52.094;4.870;2022-07-01T03:30:59;43.08;;;31.60;;
51495;SDS011;37572;52.094;4.870;2022-07-01T03:33:25;45.40;;;32.35;;
51495;SDS011;37572;52.094;4.870;2022-07-01T03:35:51;54.85;;;34.15;;
51495;SDS011;37572;52.094;4.870;2022-07-01T03:38:16;53.90;;;34.72;;
51495;SDS011;37572;52.094;4.870;2022-07-01T03:40:42;53.97;;;33.60;;
51495;SDS011;37572;52.094;4.870;2022-07-01T03:43:07;52.70;;;33.35;;
51495;SDS011;37572;52.094;4.870;2022-07-01T03:45:32;47.75;;;33.33;;
51495;SDS011;37572;52.094;4.870;2022-07-01T03:47:58;51.42;;;31.98;;
51495;SDS011;37572;52.094;4.870;2022-07-01T03:50:24;49.83;;;31.60;;
51495;SDS011;37572;52.094;4.870;2022-07-01T03:52:50;46.97;;;30.33;;
51495;SDS011;37572;52.094;4.870;2022-07-01T03:55:38;49.88;;;31.63;;
51495;SDS011;37572;52.094;4.870;2022-07-01T03:58:05;48.22;;;31.38;;
51495;SDS011;37572;52.094;4.870;2022-07-01T04:00:34;46.50;;;31.15;;
51495;SDS011;37572;52.094;4.870;2022-07-01T04:03:01;42.95;;;28.90;;
51495;SDS011;37572;52.094;4.870;2022-07-01T04:05:26;45.65;;;30.48;;
51495;SDS011;37572;52.094;4.870;2022-07-01T04:07:52;40.90;;;29.70;;
51495;SDS011;37572;52.094;4.870;2022-07-01T04:10:18;47.15;;;29.90;;
51495;SDS011;37572;52.094;4.870;2022-07-01T04:12:43;46.85;;;28.90;;
51495;SDS011;37572;52.094;4.870;2022-07-01T04:15:09;41.33;;;27.80;;
51495;SDS011;37572;52.094;4.870;2022-07-01T04:17:35;36.28;;;28.02;;
51495;SDS011;37572;52.094;4.870;2022-07-01T04:20:00;38.30;;;27.50;;
51495;SDS011;37572;52.094;4.870;2022-07-01T04:22:26;37.78;;;26.67;;
51495;SDS011;37572;52.094;4.870;2022-07-01T04:24:57;37.28;;;25.83;;
51495;SDS011;37572;52.094;4.870;2022-07-01T04:27:23;32.92;;;24.77;;
51495;SDS011;37572;52.094;4.870;2022-07-01T04:29:48;35.63;;;24.90;;
51495;SDS011;37572;52.094;4.870;2022-07-01T04:32:13;35.22;;;24.73;;
51495;SDS011;37572;52.094;4.870;2022-07-01T04:34:39;37.53;;;24.90;;
51495;SDS011;37572;52.094;4.870;2022-07-01T04:37:04;34.80;;;23.52;;
51495;SDS011;37572;52.094;4.870;2022-07-01T04:39:30;32.75;;;22.85;;
51495;SDS011;37572;52.094;4.870;2022-07-01T04:41:55;32.78;;;22.17;;
51495;SDS011;37572;52.094;4.870;2022-07-01T04:44:29;28.05;;;20.80;;
51495;SDS011;37572;52.094;4.870;2022-07-01T04:46:56;28.83;;;19.98;;
51495;SDS011;37572;52.094;4.870;2022-07-01T04:49:22;28.00;;;18.77;;
51495;SDS011;37572;52.094;4.870;2022-07-01T04:51:47;26.63;;;18.98;;
51495;SDS011;37572;52.094;4.870;2022-07-01T04:54:13;25.77;;;18.65;;
51495;SDS011;37572;52.094;4.870;2022-07-01T04:56:38;29.33;;;17.83;;
51495;SDS011;37572;52.094;4.870;2022-07-01T04:59:04;27.33;;;17.77;;
51495;SDS011;37572;52.094;4.870;2022-07-01T05:01:29;28.35;;;17.77;;
51495;SDS011;37572;52.094;4.870;2022-07-01T05:03:55;27.02;;;16.58;;
51495;SDS011;37572;52.094;4.870;2022-07-01T05:06:21;24.70;;;14.88;;
51495;SDS011;37572;52.094;4.870;2022-07-01T05:08:46;17.00;;;12.98;;
51495;SDS011;37572;52.094;4.870;2022-07-01T05:11:12;20.05;;;11.80;;
51495;SDS011;37572;52.094;4.870;2022-07-01T05:13:37;21.20;;;11.40;;
51495;SDS011;37572;52.094;4.870;2022-07-01T05:16:03;16.73;;;10.93;;
51495;SDS011;37572;52.094;4.870;2022-07-01T05:18:29;14.80;;;9.75;;
51495;SDS011;37572;52.094;4.870;2022-07-01T05:21:13;13.48;;;9.57;;
51495;SDS011;37572;52.094;4.870;2022-07-01T05:23:56;15.98;;;10.15;;
51495;SDS011;37572;52.094;4.870;2022-07-01T05:26:22;20.35;;;9.50;;
51495;SDS011;37572;52.094;4.870;2022-07-01T05:28:49;20.33;;;9.75;;
51495;SDS011;37572;52.094;4.870;2022-07-01T05:31:15;16.65;;;9.23;;
51495;SDS011;37572;52.094;4.870;2022-07-01T05:33:40;20.70;;;10.15;;
51495;SDS011;37572;52.094;4.870;2022-07-01T05:36:06;17.15;;;8.25;;
51495;SDS011;37572;52.094;4.870;2022-07-01T05:38:31;14.52;;;8.10;;
51495;SDS011;37572;52.094;4.870;2022-07-01T05:40:56;14.98;;;7.60;;
51495;SDS011;37572;52.094;4.870;2022-07-01T05:43:22;18.50;;;7.70;;
51495;SDS011;37572;52.094;4.870;2022-07-01T05:45:47;12.50;;;7.75;;
51495;SDS011;37572;52.094;4.870;2022-07-01T05:48:12;18.95;;;7.60;;
51495;SDS011;37572;52.094;4.870;2022-07-01T05:50:40;14.18;;;7.28;;
51495;SDS011;37572;52.094;4.870;2022-07-01T05:53:06;17.77;;;7.38;;
51495;SDS011;37572;52.094;4.870;2022-07-01T05:55:32;13.35;;;7.55;;
51495;SDS011;37572;52.094;4.870;2022-07-01T05:57:57;17.63;;;8.38;;
51495;SDS011;37572;52.094;4.870;2022-07-01T06:00:23;15.60;;;7.10;;
51495;SDS011;37572;52.094;4.870;2022-07-01T06:02:49;17.40;;;6.88;;
51495;SDS011;37572;52.094;4.870;2022-07-01T06:05:14;15.05;;;6.75;;
51495;SDS011;37572;52.094;4.870;2022-07-01T06:07:40;23.45;;;6.70;;
51495;SDS011;37572;52.094;4.870;2022-07-01T06:10:06;9.40;;;5.35;;
51495;SDS011;37572;52.094;4.870;2022-07-01T06:12:32;12.00;;;6.20;;
51495;SDS011;37572;52.094;4.870;2022-07-01T06:14:58;23.15;;;6.03;;
51495;SDS011;37572;52.094;4.870;2022-07-01T06:17:23;15.30;;;5.63;;
51495;SDS011;37572;52.094;4.870;2022-07-01T06:19:48;10.48;;;5.68;;
51495;SDS011;37572;52.094;4.870;2022-07-01T06:22:14;16.73;;;6.20;;
51495;SDS011;37572;52.094;4.870;2022-07-01T06:24:42;15.25;;;5.28;;
51495;SDS011;37572;52.094;4.870;2022-07-01T06:27:09;13.02;;;4.60;;
51495;SDS011;37572;52.094;4.870;2022-07-01T06:29:34;12.70;;;4.53;;
51495;SDS011;37572;52.094;4.870;2022-07-01T06:32:00;14.68;;;4.82;;
51495;SDS011;37572;52.094;4.870;2022-07-01T06:34:25;13.98;;;4.65;;
51495;SDS011;37572;52.094;4.870;2022-07-01T06:36:50;12.82;;;4.43;;
51495;SDS011;37572;52.094;4.870;2022-07-01T06:39:16;13.30;;;4.43;;
51495;SDS011;37572;52.094;4.870;2022-07-01T06:41:41;17.98;;;4.90;;
51495;SDS011;37572;52.094;4.870;2022-07-01T06:44:06;11.75;;;4.13;;
51495;SDS011;37572;52.094;4.870;2022-07-01T06:46:32;11.85;;;4.60;;
51495;SDS011;37572;52.094;4.870;2022-07-01T06:48:58;11.23;;;3.88;;
51495;SDS011;37572;52.094;4.870;2022-07-01T06:51:24;11.85;;;4.05;;
51495;SDS011;37572;52.094;4.870;2022-07-01T06:53:50;17.02;;;4.80;;
51495;SDS011;37572;52.094;4.870;2022-07-01T06:56:16;10.48;;;4.13;;
51495;SDS011;37572;52.094;4.870;2022-07-01T06:58:42;13.40;;;4.18;;
51495;SDS011;37572;52.094;4.870;2022-07-01T07:01:08;9.75;;;3.50;;
51495;SDS011;37572;52.094;4.870;2022-07-01T07:03:34;11.02;;;3.60;;
51495;SDS011;37572;52.094;4.870;2022-07-01T07:05:59;10.70;;;3.80;;
51495;SDS011;37572;52.094;4.870;2022-07-01T07:08:26;12.88;;;3.63;;
51495;SDS011;37572;52.094;4.870;2022-07-01T07:10:52;17.77;;;3.75;;
51495;SDS011;37572;52.094;4.870;2022-07-01T07:13:17;16.15;;;4.00;;
51495;SDS011;37572;52.094;4.870;2022-07-01T07:15:42;9.80;;;3.25;;
51495;SDS011;37572;52.094;4.870;2022-07-01T07:18:08;8.20;;;2.70;;
51495;SDS011;37572;52.094;4.870;2022-07-01T07:20:33;9.18;;;2.80;;
51495;SDS011;37572;52.094;4.870;2022-07-01T07:22:59;12.38;;;2.90;;
51495;SDS011;37572;52.094;4.870;2022-07-01T07:25:24;12.05;;;2.63;;
51495;SDS011;37572;52.094;4.870;2022-07-01T07:27:50;10.35;;;2.92;;
51495;SDS011;37572;52.094;4.870;2022-07-01T07:30:16;8.13;;;2.10;;
51495;SDS011;37572;52.094;4.870;2022-07-01T07:32:42;7.72;;;2.58;;
51495;SDS011;37572;52.094;4.870;2022-07-01T07:35:07;12.25;;;2.50;;
51495;SDS011;37572;52.094;4.870;2022-07-01T07:37:33;13.43;;;3.05;;
51495;SDS011;37572;52.094;4.870;2022-07-01T07:39:59;12.32;;;3.08;;
51495;SDS011;37572;52.094;4.870;2022-07-01T07:42:26;11.30;;;2.33;;
51495;SDS011;37572;52.094;4.870;2022-07-01T07:44:51;12.95;;;2.78;;
51495;SDS011;37572;52.094;4.870;2022-07-01T07:47:16;9.15;;;2.13;;
51495;SDS011;37572;52.094;4.870;2022-07-01T07:49:42;7.07;;;1.90;;
51495;SDS011;37572;52.094;4.870;2022-07-01T07:52:07;10.05;;;1.90;;
51495;SDS011;37572;52.094;4.870;2022-07-01T07:54:32;6.95;;;2.13;;
51495;SDS011;37572;52.094;4.870;2022-07-01T07:56:58;9.60;;;2.22;;
51495;SDS011;37572;52.094;4.870;2022-07-01T07:59:23;8.35;;;1.92;;
51495;SDS011;37572;52.094;4.870;2022-07-01T08:01:48;9.32;;;1.70;;
51495;SDS011;37572;52.094;4.870;2022-07-01T08:04:14;9.73;;;2.38;;
51495;SDS011;37572;52.094;4.870;2022-07-01T08:06:39;16.85;;;3.45;;
51495;SDS011;37572;52.094;4.870;2022-07-01T08:09:04;8.82;;;2.30;;
51495;SDS011;37572;52.094;4.870;2022-07-01T08:11:30;10.38;;;2.10;;
51495;SDS011;37572;52.094;4.870;2022-07-01T08:13:55;6.85;;;1.95;;
51495;SDS011;37572;52.094;4.870;2022-07-01T08:16:20;7.50;;;1.83;;
51495;SDS011;37572;52.094;4.870;2022-07-01T08:18:46;7.72;;;1.48;;
51495;SDS011;37572;52.094;4.870;2022-07-01T08:21:12;4.00;;;1.20;;
51495;SDS011;37572;52.094;4.870;2022-07-01T08:23:37;3.92;;;1.42;;
51495;SDS011;37572;52.094;4.870;2022-07-01T08:26:03;5.65;;;1.42;;
51495;SDS011;37572;52.094;4.870;2022-07-01T08:28:28;5.07;;;1.48;;
51495;SDS011;37572;52.094;4.870;2022-07-01T08:30:54;3.63;;;0.93;;
51495;SDS011;37572;52.094;4.870;2022-07-01T08:33:20;6.30;;;1.67;;
51495;SDS011;37572;52.094;4.870;2022-07-01T08:35:45;10.73;;;1.67;;
51495;SDS011;37572;52.094;4.870;2022-07-01T08:38:10;9.57;;;1.67;;
51495;SDS011;37572;52.094;4.870;2022-07-01T08:40:36;6.57;;;1.10;;
51495;SDS011;37572;52.094;4.870;2022-07-01T08:43:05;13.20;;;2.25;;
51495;SDS011;37572;52.094;4.870;2022-07-01T08:47:58;7.43;;;1.42;;
51495;SDS011;37572;52.094;4.870;2022-07-01T08:50:28;11.07;;;1.73;;
51495;SDS011;37572;52.094;4.870;2022-07-01T08:52:54;5.88;;;1.35;;
51495;SDS011;37572;52.094;4.870;2022-07-01T08:55:20;8.38;;;1.50;;
51495;SDS011;37572;52.094;4.870;2022-07-01T08:57:46;6.40;;;1.27;;
51495;SDS011;37572;52.094;4.870;2022-07-01T09:00:12;4.32;;;1.30;;
51495;SDS011;37572;52.094;4.870;2022-07-01T09:02:57;9.55;;;1.45;;
51495;SDS011;37572;52.094;4.870;2022-07-01T09:05:24;3.95;;;1.40;;
51495;SDS011;37572;52.094;4.870;2022-07-01T09:08:01;7.68;;;1.63;;
51495;SDS011;37572;52.094;4.870;2022-07-01T09:10:28;6.47;;;1.65;;
51495;SDS011;37572;52.094;4.870;2022-07-01T09:13:07;9.52;;;1.33;;
51495;SDS011;37572;52.094;4.870;2022-07-01T09:15:36;5.35;;;1.10;;
51495;SDS011;37572;52.094;4.870;2022-07-01T09:18:04;5.43;;;0.95;;
51495;SDS011;37572;52.094;4.870;2022-07-01T09:22:59;4.72;;;0.80;;
51495;SDS011;37572;52.094;4.870;2022-07-01T09:25:46;8.23;;;1.35;;
51495;SDS011;37572;52.094;4.870;2022-07-01T09:28:15;3.72;;;0.60;;
51495;SDS011;37572;52.094;4.870;2022-07-01T09:30:42;3.88;;;1.27;;
51495;SDS011;37572;52.094;4.870;2022-07-01T09:35:39;6.95;;;1.23;;
51495;SDS011;37572;52.094;4.870;2022-07-01T09:38:06;6.00;;;1.42;;
51495;SDS011;37572;52.094;4.870;2022-07-01T09:40:49;7.25;;;1.48;;
51495;SDS011;37572;52.094;4.870;2022-07-01T09:43:19;5.53;;;1.15;;
51495;SDS011;37572;52.094;4.870;2022-07-01T09:45:59;8.18;;;1.63;;
51495;SDS011;37572;52.094;4.870;2022-07-01T09:50:58;8.18;;;1.20;;
51495;SDS011;37572;52.094;4.870;2022-07-01T09:53:24;5.53;;;1.20;;
51495;SDS011;37572;52.094;4.870;2022-07-01T09:55:50;5.75;;;1.50;;
51495;SDS011;37572;52.094;4.870;2022-07-01T09:58:15;5.60;;;1.30;;
51495;SDS011;37572;52.094;4.870;2022-07-01T10:00:41;9.40;;;1.70;;
51495;SDS011;37572;52.094;4.870;2022-07-01T10:03:06;5.70;;;1.50;;
51495;SDS011;37572;52.094;4.870;2022-07-01T10:05:39;3.33;;;1.10;;
51495;SDS011;37572;52.094;4.870;2022-07-01T10:14:04;7.85;;;1.60;;
51495;SDS011;37572;52.094;4.870;2022-07-01T10:18:57;10.18;;;2.13;;
51495;SDS011;37572;52.094;4.870;2022-07-01T10:21:27;9.63;;;2.55;;
51495;SDS011;37572;52.094;4.870;2022-07-01T10:24:11;8.05;;;2.33;;
51495;SDS011;37572;52.094;4.870;2022-07-01T10:26:38;6.78;;;1.35;;
51495;SDS011;37572;52.094;4.870;2022-07-01T10:29:03;6.45;;;1.60;;
51495;SDS011;37572;52.094;4.870;2022-07-01T10:31:35;8.38;;;1.83;;
51495;SDS011;37572;52.094;4.870;2022-07-01T10:34:02;6.90;;;1.58;;
51495;SDS011;37572;52.094;4.870;2022-07-01T10:36:30;4.80;;;1.80;;
51495;SDS011;37572;52.094;4.870;2022-07-01T10:41:29;8.50;;;1.73;;
51495;SDS011;37572;52.094;4.870;2022-07-01T10:43:55;9.00;;;2.00;;
51495;SDS011;37572;52.094;4.870;2022-07-01T10:46:41;9.57;;;2.13;;
51495;SDS011;37572;52.094;4.870;2022-07-01T10:49:14;6.45;;;1.60;;
51495;SDS011;37572;52.094;4.870;2022-07-01T10:51:48;8.68;;;1.92;;
51495;SDS011;37572;52.094;4.870;2022-07-01T10:57:17;7.10;;;1.83;;
51495;SDS011;37572;52.094;4.870;2022-07-01T10:59:44;7.43;;;1.80;;
51495;SDS011;37572;52.094;4.870;2022-07-01T11:02:35;6.57;;;1.73;;
51495;SDS011;37572;52.094;4.870;2022-07-01T11:07:33;4.57;;;1.50;;
51495;SDS011;37572;52.094;4.870;2022-07-01T11:10:00;6.63;;;1.48;;
51495;SDS011;37572;52.094;4.870;2022-07-01T11:12:28;7.38;;;1.52;;
51495;SDS011;37572;52.094;4.870;2022-07-01T11:14:55;4.03;;;0.85;;
51495;SDS011;37572;52.094;4.870;2022-07-01T11:17:24;4.27;;;1.00;;
51495;SDS011;37572;52.094;4.870;2022-07-01T11:19:51;6.65;;;1.20;;
51495;SDS011;37572;52.094;4.870;2022-07-01T11:22:23;6.20;;;0.93;;
51495;SDS011;37572;52.094;4.870;2022-07-01T11:24:54;4.05;;;0.80;;
51495;SDS011;37572;52.094;4.870;2022-07-01T11:27:21;3.65;;;1.10;;
51495;SDS011;37572;52.094;4.870;2022-07-01T11:29:50;4.43;;;0.98;;
51495;SDS011;37572;52.094;4.870;2022-07-01T11:32:26;3.85;;;0.88;;
51495;SDS011;37572;52.094;4.870;2022-07-01T11:34:53;3.95;;;1.13;;
51495;SDS011;37572;52.094;4.870;2022-07-01T11:37:19;6.07;;;1.13;;
51495;SDS011;37572;52.094;4.870;2022-07-01T11:40:10;5.00;;;1.33;;
51495;SDS011;37572;52.094;4.870;2022-07-01T11:42:37;4.13;;;0.90;;
51495;SDS011;37572;52.094;4.870;2022-07-01T11:45:04;8.40;;;1.20;;
51495;SDS011;37572;52.094;4.870;2022-07-01T11:47:30;5.35;;;1.10;;
51495;SDS011;37572;52.094;4.870;2022-07-01T11:49:56;6.03;;;1.05;;
51495;SDS011;37572;52.094;4.870;2022-07-01T11:52:22;6.68;;;1.13;;
51495;SDS011;37572;52.094;4.870;2022-07-01T11:54:49;4.88;;;1.23;;
51495;SDS011;37572;52.094;4.870;2022-07-01T11:57:20;2.42;;;0.90;;
51495;SDS011;37572;52.094;4.870;2022-07-01T11:59:49;12.73;;;1.17;;
51495;SDS011;37572;52.094;4.870;2022-07-01T12:02:17;5.50;;;1.02;;
51495;SDS011;37572;52.094;4.870;2022-07-01T12:04:44;3.22;;;0.80;;
51495;SDS011;37572;52.094;4.870;2022-07-01T12:07:10;2.53;;;0.63;;
51495;SDS011;37572;52.094;4.870;2022-07-01T12:09:38;5.22;;;0.88;;
51495;SDS011;37572;52.094;4.870;2022-07-01T12:12:03;4.00;;;1.08;;
51495;SDS011;37572;52.094;4.870;2022-07-01T12:14:31;5.57;;;1.42;;
51495;SDS011;37572;52.094;4.870;2022-07-01T12:16:59;7.65;;;1.30;;
51495;SDS011;37572;52.094;4.870;2022-07-01T12:21:57;8.77;;;1.70;;
51495;SDS011;37572;52.094;4.870;2022-07-01T12:24:23;12.27;;;2.22;;
51495;SDS011;37572;52.094;4.870;2022-07-01T12:27:01;7.00;;;1.95;;
51495;SDS011;37572;52.094;4.870;2022-07-01T12:29:29;6.07;;;1.40;;
51495;SDS011;37572;52.094;4.870;2022-07-01T12:32:05;6.05;;;1.70;;
51495;SDS011;37572;52.094;4.870;2022-07-01T12:37:07;6.43;;;1.70;;
51495;SDS011;37572;52.094;4.870;2022-07-01T12:39:41;5.63;;;1.35;;
51495;SDS011;37572;52.094;4.870;2022-07-01T12:45:00;6.22;;;1.65;;
51495;SDS011;37572;52.094;4.870;2022-07-01T12:47:31;6.15;;;1.05;;
51495;SDS011;37572;52.094;4.870;2022-07-01T12:50:10;5.65;;;1.10;;
51495;SDS011;37572;52.094;4.870;2022-07-01T12:52:37;7.50;;;1.13;;
51495;SDS011;37572;52.094;4.870;2022-07-01T12:55:16;5.10;;;1.20;;
51495;SDS011;37572;52.094;4.870;2022-07-01T12:57:43;3.28;;;1.20;;
51495;SDS011;37572;52.094;4.870;2022-07-01T13:00:08;5.65;;;1.70;;
51495;SDS011;37572;52.094;4.870;2022-07-01T13:02:34;4.78;;;1.30;;
51495;SDS011;37572;52.094;4.870;2022-07-01T13:04:59;2.78;;;0.88;;
51495;SDS011;37572;52.094;4.870;2022-07-01T13:07:25;4.15;;;0.80;;
51495;SDS011;37572;52.094;4.870;2022-07-01T13:09:50;2.17;;;0.70;;
51495;SDS011;37572;52.094;4.870;2022-07-01T13:12:16;9.25;;;1.60;;
51495;SDS011;37572;52.094;4.870;2022-07-01T13:14:41;3.97;;;0.90;;
51495;SDS011;37572;52.094;4.870;2022-07-01T13:17:06;5.95;;;1.52;;
51495;SDS011;37572;52.094;4.870;2022-07-01T13:19:32;4.13;;;1.10;;
51495;SDS011;37572;52.094;4.870;2022-07-01T13:21:59;4.18;;;1.33;;
51495;SDS011;37572;52.094;4.870;2022-07-01T13:24:26;5.53;;;1.60;;
51495;SDS011;37572;52.094;4.870;2022-07-01T13:26:51;5.68;;;1.00;;
51495;SDS011;37572;52.094;4.870;2022-07-01T13:29:17;4.68;;;1.50;;
51495;SDS011;37572;52.094;4.870;2022-07-01T13:31:42;7.43;;;1.00;;
51495;SDS011;37572;52.094;4.870;2022-07-01T13:34:08;6.28;;;1.30;;
51495;SDS011;37572;52.094;4.870;2022-07-01T13:36:33;7.45;;;1.98;;
51495;SDS011;37572;52.094;4.870;2022-07-01T13:38:58;5.63;;;1.20;;
51495;SDS011;37572;52.094;4.870;2022-07-01T13:41:24;3.50;;;1.10;;
51495;SDS011;37572;52.094;4.870;2022-07-01T13:43:50;6.13;;;1.40;;
51495;SDS011;37572;52.094;4.870;2022-07-01T13:46:16;9.02;;;1.45;;
51495;SDS011;37572;52.094;4.870;2022-07-01T13:48:41;5.57;;;1.25;;
51495;SDS011;37572;52.094;4.870;2022-07-01T13:51:07;3.15;;;0.95;;
51495;SDS011;37572;52.094;4.870;2022-07-01T13:53:33;5.53;;;1.00;;
51495;SDS011;37572;52.094;4.870;2022-07-01T13:55:59;4.93;;;1.50;;
51495;SDS011;37572;52.094;4.870;2022-07-01T13:58:24;4.65;;;0.95;;
51495;SDS011;37572;52.094;4.870;2022-07-01T14:00:49;4.70;;;1.00;;
51495;SDS011;37572;52.094;4.870;2022-07-01T14:03:15;6.25;;;1.00;;
51495;SDS011;37572;52.094;4.870;2022-07-01T14:05:40;3.83;;;1.20;;
51495;SDS011;37572;52.094;4.870;2022-07-01T14:08:05;5.47;;;0.98;;
51495;SDS011;37572;52.094;4.870;2022-07-01T14:10:31;5.03;;;1.27;;
51495;SDS011;37572;52.094;4.870;2022-07-01T14:12:58;4.70;;;1.38;;
51495;SDS011;37572;52.094;4.870;2022-07-01T14:15:23;3.58;;;1.00;;
51495;SDS011;37572;52.094;4.870;2022-07-01T14:17:48;2.90;;;1.13;;
51495;SDS011;37572;52.094;4.870;2022-07-01T14:20:14;3.42;;;1.00;;
51495;SDS011;37572;52.094;4.870;2022-07-01T14:22:39;2.58;;;0.82;;
51495;SDS011;37572;52.094;4.870;2022-07-01T14:25:04;4.72;;;0.93;;
51495;SDS011;37572;52.094;4.870;2022-07-01T14:27:30;3.65;;;0.90;;
51495;SDS011;37572;52.094;4.870;2022-07-01T14:29:56;3.00;;;0.60;;
51495;SDS011;37572;52.094;4.870;2022-07-01T14:32:21;2.90;;;0.93;;
51495;SDS011;37572;52.094;4.870;2022-07-01T14:34:51;5.40;;;1.52;;
51495;SDS011;37572;52.094;4.870;2022-07-01T14:37:17;4.20;;;0.85;;
51495;SDS011;37572;52.094;4.870;2022-07-01T14:39:42;7.40;;;1.10;;
51495;SDS011;37572;52.094;4.870;2022-07-01T14:42:08;3.42;;;1.00;;
51495;SDS011;37572;52.094;4.870;2022-07-01T14:44:33;7.28;;;1.27;;
51495;SDS011;37572;52.094;4.870;2022-07-01T14:46:58;8.05;;;1.02;;
51495;SDS011;37572;52.094;4.870;2022-07-01T14:49:24;5.13;;;1.38;;
51495;SDS011;37572;52.094;4.870;2022-07-01T14:51:49;2.72;;;1.13;;
51495;SDS011;37572;52.094;4.870;2022-07-01T14:54:15;8.45;;;1.35;;
51495;SDS011;37572;52.094;4.870;2022-07-01T14:56:41;4.80;;;1.00;;
51495;SDS011;37572;52.094;4.870;2022-07-01T14:59:06;2.47;;;0.90;;
51495;SDS011;37572;52.094;4.870;2022-07-01T15:01:31;5.43;;;1.13;;
51495;SDS011;37572;52.094;4.870;2022-07-01T15:03:57;6.88;;;1.13;;
51495;SDS011;37572;52.094;4.870;2022-07-01T15:06:22;4.10;;;0.90;;
51495;SDS011;37572;52.094;4.870;2022-07-01T15:08:48;6.43;;;1.15;;